조회
AD:공항, STS:일기, VIS:시정(m), WD:풍향, WS:풍속(knot), TEMP:기온(℃)
TYPE AD STS VIS WD WS TEMP Original Message
METAR 인천 weather 8000 북서 08 05 061700Z 32008KT 8000 -RA FEW015 OVC030 05/02 Q1021 NOSIG=
METAR 김포 weather 10000 04 03 061700Z 19004KT 9999 -RA BKN030 OVC070 03/00 Q1021 NOSIG=
METAR 청주 weather 10000 01 01 061700Z 18001KT 9999 BKN030 01/01 Q1023=
METAR 양양 weather 10000 14 03 061700Z AUTO 28014G30KT 230V330 9999 NCD 03/M08 Q1018=
METAR 군산 weather 10000 서북서 08 06 061600Z 30008KT 9999 BKN050 06/M05 A3022 RMK CIG050 SLP237 8/500 9/600=
METAR 원주 weather 4800 북북동 02 -05 061600Z 03002KT 4800 BR BKN070 M05/M05 A3020 RMK CIG070 SLP235 8/020 9/070=
METAR 김해 weather 10000 03 05 061700Z 26003KT CAVOK 05/M05 Q1024=
METAR 제주 weather 10000 06 08 061700Z 27006KT 230V310 9999 FEW040 BKN200 08/00 Q1025 NOSIG=
METAR 대구 weather 10000 01 01 061700Z 36001KT CAVOK 01/M03 Q1023=
METAR 광주 weather 10000 01 -01 061600Z 26001KT CAVOK M01/M03 Q1025 RMK SLP256 8/500 9/400=
METAR 여수 weather 10000 서남서 05 04 061600Z AUTO 24005KT 200V290 9999 NCD 04/M04 Q1024=
METAR 울산 weather 10000 02 -01 061600Z AUTO 35002KT 9999 NCD M01/M04 Q1023=
METAR 포항 weather 10000 03 01 061600Z 18003KT 9999 BKN030 01/M04 Q1022 RMK CIG030 SLP228 8/500 9/500=
METAR 사천 weather 10000 북동 03 -03 061600Z 05003KT 9999 FEW050 M03/M06 Q1024 RMK SLP244 8/500 9/100=
METAR 무안 weather 10000 02 01 061700Z AUTO 17002KT 9999 NCD 01/M02 Q1024=
주. 군공항제외